createdAt,value
2018-03-27T00:00:56.074Z,17.26
2018-03-27T00:03:00.709Z,17.53
2018-03-27T00:05:04.561Z,17.72
2018-03-27T00:07:08.488Z,17.36
2018-03-27T00:09:12.555Z,17.06
2018-03-27T00:11:16.344Z,17.03
2018-03-27T00:13:20.603Z,17.61
2018-03-27T00:15:29.897Z,17.49
2018-03-27T00:17:33.635Z,17.24
2018-03-27T00:19:37.413Z,17.32
2018-03-27T00:21:41.537Z,17.45
2018-03-27T00:23:45.299Z,17.13
2018-03-27T00:25:49.055Z,17.24
2018-03-27T00:28:04.479Z,17.21
2018-03-27T00:30:19.118Z,17.68
2018-03-27T00:32:34.204Z,17.30
2018-03-27T00:34:49.570Z,17.75
2018-03-27T00:37:04.253Z,17.97
2018-03-27T00:39:19.306Z,17.75
2018-03-27T00:41:32.681Z,16.98
2018-03-27T00:43:40.669Z,17.49
2018-03-27T00:45:44.556Z,17.19
2018-03-27T00:47:49.267Z,16.76
2018-03-27T00:49:54.437Z,17.27
2018-03-27T00:51:58.545Z,17.27
2018-03-27T00:54:02.866Z,17.08
2018-03-27T00:56:07.131Z,16.99
2018-03-27T00:58:11.370Z,17.08
2018-03-27T01:00:15.992Z,17.04
2018-03-27T01:02:23.720Z,17.48
2018-03-27T01:04:27.620Z,17.17
2018-03-27T01:06:31.936Z,16.71
2018-03-27T01:08:36.292Z,17.21
2018-03-27T01:10:40.425Z,17.11
2018-03-27T01:12:44.527Z,17.22
2018-03-27T01:14:48.495Z,16.99
2018-03-27T01:16:52.408Z,17.35
2018-03-27T01:18:56.908Z,17.23
2018-03-27T01:21:01.174Z,17.07
2018-03-27T01:23:05.383Z,17.14
2018-03-27T01:25:09.855Z,17.26
2018-03-27T01:27:13.858Z,17.44
2018-03-27T01:29:17.947Z,17.35
2018-03-27T01:31:22.282Z,17.62
2018-03-27T01:33:26.499Z,17.39
2018-03-27T01:35:30.707Z,17.07
2018-03-27T01:37:35.044Z,17.26
2018-03-27T01:39:39.040Z,17.04
2018-03-27T01:41:43.051Z,17.09
2018-03-27T01:43:47.303Z,17.01
2018-03-27T01:45:51.274Z,17.00
2018-03-27T01:47:55.354Z,16.69
2018-03-27T01:49:59.859Z,16.69
2018-03-27T01:52:03.703Z,16.98
2018-03-27T01:54:07.907Z,17.01
2018-03-27T01:56:12.302Z,16.81
2018-03-27T01:58:16.248Z,16.83
2018-03-27T02:00:20.147Z,16.76
2018-03-27T02:02:24.659Z,16.89
2018-03-27T02:04:28.647Z,17.14
2018-03-27T02:06:32.723Z,16.97
2018-03-27T02:08:37.262Z,17.79
2018-03-27T02:10:40.132Z,17.71
2018-03-27T02:12:49.430Z,17.27
2018-03-27T02:14:59.059Z,16.88
2018-03-27T02:17:08.719Z,16.10
2018-03-27T02:19:18.373Z,16.27
2018-03-27T02:21:24.518Z,15.77
2018-03-27T02:23:28.839Z,16.47
2018-03-27T02:25:32.732Z,15.68
2018-03-27T02:27:37.191Z,16.20
2018-03-27T02:29:41.319Z,16.62
2018-03-27T02:31:45.351Z,16.29
2018-03-27T02:33:49.752Z,16.33
2018-03-27T02:35:53.815Z,16.56
2018-03-27T02:37:57.989Z,16.74
2018-03-27T02:40:02.534Z,16.80
2018-03-27T02:42:06.556Z,16.62
2018-03-27T02:44:14.063Z,16.61
2018-03-27T02:46:18.311Z,16.80
2018-03-27T02:48:22.049Z,17.28
2018-03-27T02:50:25.966Z,16.00
2018-03-27T02:52:30.107Z,16.12
2018-03-27T02:54:34.147Z,16.07
2018-03-27T02:56:38.327Z,16.72
2018-03-27T02:58:42.310Z,16.86
2018-03-27T03:00:46.605Z,15.93
2018-03-27T03:02:50.957Z,16.11
2018-03-27T03:04:55.096Z,15.76
2018-03-27T03:06:59.346Z,15.68
2018-03-27T03:09:03.259Z,15.60
2018-03-27T03:11:09.199Z,16.17
2018-03-27T03:13:13.320Z,15.79
2018-03-27T03:15:17.615Z,15.99
2018-03-27T03:17:21.575Z,15.88
2018-03-27T03:19:26.127Z,15.42
2018-03-27T03:21:29.834Z,15.83
2018-03-27T03:23:33.635Z,16.00
2018-03-27T03:25:37.560Z,15.48
2018-03-27T03:27:41.744Z,15.29
2018-03-27T03:29:45.551Z,16.50
2018-03-27T03:31:49.355Z,16.30
2018-03-27T03:33:53.680Z,15.98
2018-03-27T03:35:57.703Z,16.07
2018-03-27T03:38:01.632Z,16.42
2018-03-27T03:40:05.709Z,16.66
2018-03-27T03:42:09.519Z,16.64
2018-03-27T03:44:13.355Z,17.02
2018-03-27T03:46:17.620Z,17.22
2018-03-27T03:48:21.658Z,16.37
2018-03-27T03:50:25.398Z,15.83
2018-03-27T03:52:29.327Z,15.71
2018-03-27T03:54:33.085Z,16.83
2018-03-27T03:56:37.576Z,17.02
2018-03-27T03:58:41.296Z,17.15
2018-03-27T04:00:45.597Z,16.67
2018-03-27T04:02:49.891Z,15.77
2018-03-27T04:04:53.930Z,16.66
2018-03-27T04:06:57.800Z,16.73
2018-03-27T04:09:01.530Z,15.93
2018-03-27T04:11:05.862Z,16.27
2018-03-27T04:13:09.934Z,15.98
2018-03-27T04:15:13.736Z,15.66
2018-03-27T04:17:18.056Z,15.85
2018-03-27T04:19:21.807Z,15.62
2018-03-27T04:21:25.558Z,16.26
2018-03-27T04:23:29.719Z,16.53
2018-03-27T04:25:33.847Z,15.89
2018-03-27T04:27:37.583Z,15.68
2018-03-27T04:29:41.715Z,15.67
2018-03-27T04:31:46.233Z,15.32
2018-03-27T04:33:50.452Z,16.05
2018-03-27T04:35:54.329Z,15.72
2018-03-27T04:37:58.423Z,15.23
2018-03-27T04:40:02.528Z,14.48
2018-03-27T04:42:06.350Z,14.24
2018-03-27T04:44:10.144Z,14.14
2018-03-27T04:46:14.363Z,14.34
2018-03-27T04:48:18.479Z,16.07
2018-03-27T04:50:22.475Z,16.64
2018-03-27T04:52:26.292Z,17.08
2018-03-27T04:54:30.384Z,16.18
2018-03-27T04:56:34.859Z,15.54
2018-03-27T04:58:38.639Z,15.00
2018-03-27T05:00:42.470Z,15.07
2018-03-27T05:02:46.952Z,14.99
2018-03-27T05:04:50.980Z,14.95
2018-03-27T05:06:54.886Z,15.41
2018-03-27T05:08:59.206Z,15.04
2018-03-27T05:11:03.187Z,15.98
2018-03-27T05:13:06.893Z,15.62
2018-03-27T05:15:11.160Z,15.69
2018-03-27T05:17:14.990Z,16.22
2018-03-27T05:19:18.735Z,15.45
2018-03-27T05:21:22.735Z,15.18
2018-03-27T05:23:26.516Z,15.06
2018-03-27T05:25:30.236Z,15.38
2018-03-27T05:27:34.303Z,15.68
2018-03-27T05:29:38.111Z,14.98
2018-03-27T05:31:41.879Z,14.56
2018-03-27T05:33:45.943Z,14.66
2018-03-27T05:35:49.676Z,14.71
2018-03-27T05:37:53.395Z,14.96
2018-03-27T05:39:58.574Z,16.02
2018-03-27T05:42:02.424Z,16.10
2018-03-27T05:44:06.204Z,16.37
2018-03-27T05:46:10.279Z,16.04
2018-03-27T05:48:14.059Z,16.06
2018-03-27T05:50:17.851Z,16.02
2018-03-27T05:52:21.921Z,16.22
2018-03-27T05:54:25.739Z,16.00
2018-03-27T05:56:29.456Z,15.87
2018-03-27T05:58:33.499Z,16.28
2018-03-27T06:00:37.222Z,16.06
2018-03-27T06:02:41.090Z,15.50
2018-03-27T06:04:45.173Z,15.86
2018-03-27T06:06:48.917Z,17.23
2018-03-27T06:08:52.668Z,17.34
2018-03-27T06:10:56.688Z,17.90
2018-03-27T06:13:00.427Z,17.31
2018-03-27T06:15:04.164Z,16.82
2018-03-27T06:17:08.288Z,16.55
2018-03-27T06:19:12.591Z,16.65
2018-03-27T06:21:16.319Z,16.65
2018-03-27T06:23:20.511Z,15.50
2018-03-27T06:25:24.457Z,14.63
2018-03-27T06:27:28.278Z,16.45
2018-03-27T06:29:32.335Z,15.45
2018-03-27T06:31:36.492Z,16.32
2018-03-27T06:33:40.227Z,16.83
2018-03-27T06:35:44.252Z,15.54
2018-03-27T06:37:47.979Z,15.95
2018-03-27T06:39:51.860Z,15.55
2018-03-27T06:41:55.975Z,17.42
2018-03-27T06:44:00.749Z,17.20
2018-03-27T06:46:04.537Z,16.55
2018-03-27T06:48:08.596Z,17.75
2018-03-27T06:50:12.568Z,17.40
2018-03-27T06:52:16.379Z,17.36
2018-03-27T06:54:20.435Z,17.30
2018-03-27T06:56:24.215Z,17.14
2018-03-27T06:58:27.969Z,16.50
2018-03-27T07:00:32.307Z,16.61
2018-03-27T07:02:36.054Z,17.36
2018-03-27T07:04:39.843Z,18.02
2018-03-27T07:06:44.648Z,18.13
2018-03-27T07:08:51.688Z,18.11
2018-03-27T07:10:55.566Z,17.78
2018-03-27T07:12:59.683Z,17.99
2018-03-27T07:15:07.665Z,17.39
2018-03-27T07:17:11.496Z,17.78
2018-03-27T07:19:15.541Z,17.88
2018-03-27T07:21:19.402Z,17.82
2018-03-27T07:23:27.545Z,17.24
2018-03-27T07:25:31.599Z,17.50
2018-03-27T07:27:35.343Z,17.24
2018-03-27T07:29:39.112Z,16.74
2018-03-27T07:31:43.149Z,18.09
2018-03-27T07:33:46.898Z,17.91
2018-03-27T07:35:50.677Z,18.10
2018-03-27T07:37:54.918Z,18.25
2018-03-27T07:39:58.793Z,17.46
2018-03-27T07:42:02.863Z,18.06
2018-03-27T07:44:06.982Z,17.58
2018-03-27T07:46:10.840Z,17.62
2018-03-27T07:48:14.740Z,17.95
2018-03-27T07:50:18.770Z,18.35
2018-03-27T07:52:22.513Z,18.83
2018-03-27T07:54:26.291Z,18.49
2018-03-27T07:56:30.632Z,18.52
2018-03-27T07:58:34.578Z,17.86
2018-03-27T08:00:38.319Z,17.88
2018-03-27T08:02:42.457Z,18.11
2018-03-27T08:04:46.228Z,18.80
2018-03-27T08:06:50.091Z,18.75
2018-03-27T08:08:54.586Z,19.07
2018-03-27T08:10:58.404Z,18.85
2018-03-27T08:13:02.160Z,18.74
2018-03-27T08:15:07.279Z,17.80
2018-03-27T08:17:11.228Z,17.75
2018-03-27T08:19:15.082Z,18.79
2018-03-27T08:21:19.202Z,18.32
2018-03-27T08:23:23.171Z,18.94
2018-03-27T08:25:27.111Z,19.36
2018-03-27T08:27:31.177Z,18.56
2018-03-27T08:29:35.196Z,18.36
2018-03-27T08:31:39.317Z,17.90
2018-03-27T08:33:43.655Z,18.85
2018-03-27T08:35:47.412Z,18.09
2018-03-27T08:37:51.349Z,17.98
2018-03-27T08:39:55.515Z,18.12
2018-03-27T08:41:59.353Z,17.86
2018-03-27T08:44:03.251Z,18.46
2018-03-27T08:46:07.710Z,18.13
2018-03-27T08:48:11.432Z,17.90
2018-03-27T08:50:15.352Z,17.54
2018-03-27T08:52:19.382Z,17.64
2018-03-27T08:54:23.124Z,18.14
2018-03-27T08:56:26.912Z,18.52
2018-03-27T08:58:31.103Z,18.62
2018-03-27T09:00:34.875Z,18.49
2018-03-27T09:02:38.623Z,18.04
2018-03-27T09:04:42.646Z,17.65
2018-03-27T09:06:46.382Z,18.69
2018-03-27T09:08:50.107Z,18.66
2018-03-27T09:10:54.257Z,18.83
2018-03-27T09:12:57.982Z,18.92
2018-03-27T09:15:05.464Z,19.26
2018-03-27T09:17:09.488Z,19.54
2018-03-27T09:19:13.279Z,19.97
2018-03-27T09:21:17.099Z,18.88
2018-03-27T09:23:21.165Z,18.39
2018-03-27T09:25:24.975Z,18.57
2018-03-27T09:27:28.778Z,18.48
2018-03-27T09:29:33.223Z,18.82
2018-03-27T09:31:37.150Z,19.38
2018-03-27T09:33:40.895Z,19.15
2018-03-27T09:35:45.012Z,19.65
2018-03-27T09:37:48.770Z,19.16
2018-03-27T09:39:52.581Z,18.88
2018-03-27T09:41:56.659Z,19.28
2018-03-27T09:44:00.404Z,19.72
2018-03-27T09:46:04.287Z,19.52
2018-03-27T09:48:08.600Z,19.08
2018-03-27T09:50:12.366Z,18.80
2018-03-27T09:52:16.106Z,19.00
2018-03-27T09:54:20.121Z,19.60
2018-03-27T09:56:23.936Z,19.15
2018-03-27T09:58:27.946Z,19.32
2018-03-27T10:00:36.143Z,19.58
2018-03-27T10:02:40.151Z,18.76
2018-03-27T10:04:43.890Z,19.24
2018-03-27T10:06:48.924Z,19.06
2018-03-27T10:08:53.319Z,20.16
2018-03-27T10:10:57.292Z,19.67
2018-03-27T10:13:01.462Z,19.88
2018-03-27T10:15:05.558Z,19.14
2018-03-27T10:17:10.892Z,18.99
2018-03-27T10:19:15.579Z,19.07
2018-03-27T10:21:19.565Z,20.01
2018-03-27T10:23:23.653Z,19.95
2018-03-27T10:25:28.270Z,20.34
2018-03-27T10:27:32.010Z,19.95
2018-03-27T10:29:36.140Z,19.55
2018-03-27T10:31:40.209Z,19.40
2018-03-27T10:33:44.327Z,19.05
2018-03-27T10:35:48.299Z,19.56
2018-03-27T10:37:52.519Z,20.13
2018-03-27T10:39:56.600Z,19.69
2018-03-27T10:42:00.410Z,20.27
2018-03-27T10:44:04.616Z,19.68
2018-03-27T10:46:08.376Z,19.42
2018-03-27T10:48:13.344Z,20.12
2018-03-27T10:50:17.550Z,20.84
2018-03-27T10:52:21.649Z,19.62
2018-03-27T10:54:25.803Z,18.89
2018-03-27T10:56:29.882Z,19.50
2018-03-27T10:58:33.720Z,20.08
2018-03-27T11:00:37.571Z,20.08
2018-03-27T11:02:42.195Z,20.71
2018-03-27T11:04:45.999Z,20.39
2018-03-27T11:06:49.838Z,19.77
2018-03-27T11:08:53.906Z,20.29
2018-03-27T11:10:57.634Z,19.94
2018-03-27T11:13:01.355Z,20.10
2018-03-27T11:15:05.831Z,20.67
2018-03-27T11:17:09.607Z,20.37
2018-03-27T11:19:13.351Z,20.87
2018-03-27T11:21:17.398Z,20.56
2018-03-27T11:23:21.765Z,21.63
2018-03-27T11:25:25.466Z,21.54
2018-03-27T11:27:29.855Z,21.78
2018-03-27T11:29:33.586Z,21.62
2018-03-27T11:31:37.315Z,21.70
2018-03-27T11:33:41.330Z,21.42
2018-03-27T11:35:45.813Z,20.36
2018-03-27T11:37:49.832Z,21.38
2018-03-27T11:39:54.063Z,21.03
2018-03-27T11:41:57.810Z,19.94
2018-03-27T11:44:01.586Z,20.21
2018-03-27T11:46:05.827Z,20.52
2018-03-27T11:48:09.590Z,21.42
2018-03-27T11:50:13.322Z,21.76
2018-03-27T11:52:17.803Z,20.36
2018-03-27T11:54:21.618Z,21.31
2018-03-27T11:56:25.605Z,20.24
2018-03-27T11:58:29.610Z,19.83
2018-03-27T12:00:33.448Z,19.78
2018-03-27T12:02:37.305Z,20.72
2018-03-27T12:04:41.455Z,20.14
2018-03-27T12:06:45.604Z,19.26
2018-03-27T12:08:49.375Z,19.78
2018-03-27T12:10:53.556Z,19.95
2018-03-27T12:12:57.296Z,19.91
2018-03-27T12:15:01.577Z,20.60
2018-03-27T12:17:05.877Z,20.61
2018-03-27T12:19:11.706Z,20.76
2018-03-27T12:21:15.495Z,21.62
2018-03-27T12:24:43.984Z,20.81
2018-03-27T12:26:47.946Z,21.13
2018-03-27T12:28:52.307Z,21.13
2018-03-27T12:30:56.043Z,23.99
2018-03-27T12:32:59.879Z,22.19
2018-03-27T12:35:03.944Z,23.64
2018-03-27T12:37:07.807Z,24.02
2018-03-27T12:39:11.542Z,22.08
2018-03-27T12:41:15.854Z,23.31
2018-03-27T12:43:19.644Z,24.11
2018-03-27T12:45:23.446Z,24.58
2018-03-27T12:47:27.490Z,22.68
2018-03-27T12:49:31.545Z,22.56
2018-03-27T12:51:39.724Z,23.25
2018-03-27T12:53:44.163Z,22.82
2018-03-27T12:55:48.438Z,24.64
2018-03-27T12:57:52.184Z,23.87
2018-03-27T12:59:56.933Z,24.51
2018-03-27T13:02:00.667Z,23.83
2018-03-27T13:04:04.461Z,24.85
2018-03-27T13:06:08.828Z,24.42
2018-03-27T13:08:13.104Z,22.65
2018-03-27T13:10:16.896Z,23.39
2018-03-27T13:12:20.919Z,23.11
2018-03-27T13:14:24.787Z,22.24
2018-03-27T13:16:28.508Z,22.80
2018-03-27T13:18:32.673Z,22.44
2018-03-27T13:20:36.642Z,21.92
2018-03-27T13:22:40.419Z,22.32
2018-03-27T13:24:44.593Z,22.71
2018-03-27T13:26:48.594Z,22.05
2018-03-27T13:28:52.394Z,21.60
2018-03-27T13:30:56.566Z,21.75
2018-03-27T13:33:00.314Z,21.50
2018-03-27T13:35:04.087Z,22.30
2018-03-27T13:37:08.242Z,21.84
2018-03-27T13:39:12.016Z,22.37
2018-03-27T13:41:15.880Z,22.90
2018-03-27T13:43:19.958Z,23.65
2018-03-27T13:45:23.681Z,24.71
2018-03-27T13:47:27.392Z,24.80
2018-03-27T13:49:32.282Z,25.33
2018-03-27T13:51:36.022Z,25.69
2018-03-27T13:53:40.134Z,25.65
2018-03-27T13:55:44.802Z,24.29
2018-03-27T13:57:48.664Z,24.32
2018-03-27T13:59:52.431Z,22.49
2018-03-27T14:01:56.470Z,23.64
2018-03-27T14:04:00.184Z,23.22
2018-03-27T14:06:05.930Z,23.55
2018-03-27T14:08:09.960Z,22.89
2018-03-27T14:10:13.791Z,22.26
2018-03-27T14:12:17.716Z,22.27
2018-03-27T14:14:21.793Z,22.82
2018-03-27T14:16:29.959Z,22.74
2018-03-27T14:18:33.737Z,23.56
2018-03-27T14:20:37.970Z,22.59
2018-03-27T14:22:41.726Z,23.28
2018-03-27T14:24:45.462Z,23.13
2018-03-27T14:26:49.524Z,24.14
2018-03-27T14:28:53.285Z,23.41
2018-03-27T14:30:57.016Z,23.40
2018-03-27T14:33:01.020Z,22.88
2018-03-27T14:35:05.146Z,22.86
2018-03-27T14:37:08.898Z,22.87
2018-03-27T14:39:12.957Z,22.38
2018-03-27T14:41:16.986Z,22.69
2018-03-27T14:43:21.007Z,22.14
2018-03-27T14:45:25.175Z,21.44
2018-03-27T14:47:28.904Z,22.15
2018-03-27T14:49:32.668Z,22.51
2018-03-27T14:51:36.850Z,22.45
2018-03-27T14:53:40.743Z,23.21
2018-03-27T14:55:44.626Z,22.43
2018-03-27T14:57:48.695Z,22.17
2018-03-27T14:59:52.508Z,21.79
2018-03-27T15:01:56.808Z,21.76
2018-03-27T15:04:01.107Z,22.05
2018-03-27T15:06:04.918Z,22.10
2018-03-27T15:08:08.668Z,21.67
2018-03-27T15:10:12.830Z,21.38
2018-03-27T15:12:16.595Z,21.52
2018-03-27T15:14:20.354Z,21.04
2018-03-27T15:16:24.458Z,20.80
2018-03-27T15:18:28.185Z,21.08
2018-03-27T15:20:31.941Z,21.16
2018-03-27T15:22:35.983Z,20.89
2018-03-27T15:24:39.787Z,21.84
2018-03-27T15:26:45.173Z,22.05
2018-03-27T15:28:49.401Z,21.25
2018-03-27T15:30:53.309Z,21.48
2018-03-27T15:32:57.102Z,20.44
2018-03-27T15:35:01.286Z,20.49
2018-03-27T15:37:05.212Z,21.23
2018-03-27T15:39:08.942Z,20.74
2018-03-27T15:41:12.975Z,21.06
2018-03-27T15:43:16.689Z,22.17
2018-03-27T15:45:20.573Z,21.03
2018-03-27T15:47:24.923Z,21.37
2018-03-27T15:49:28.839Z,21.38
2018-03-27T15:51:32.671Z,22.20
2018-03-27T15:53:36.748Z,21.81
2018-03-27T15:55:40.530Z,21.38
2018-03-27T15:57:44.250Z,20.48
2018-03-27T15:59:48.292Z,21.11
2018-03-27T16:01:52.063Z,20.20
2018-03-27T16:03:55.811Z,19.91
2018-03-27T16:05:59.888Z,19.59
2018-03-27T16:08:03.678Z,19.58
2018-03-27T16:10:07.701Z,19.70
2018-03-27T16:12:11.761Z,19.70
2018-03-27T16:14:15.561Z,19.41
2018-03-27T16:16:19.588Z,19.56
2018-03-27T16:18:23.606Z,19.58
2018-03-27T16:20:27.395Z,19.38
2018-03-27T16:22:31.420Z,19.73
2018-03-27T16:24:35.479Z,19.54
2018-03-27T16:26:39.238Z,19.79
2018-03-27T16:28:42.978Z,19.20
2018-03-27T16:30:47.006Z,19.46
2018-03-27T16:32:57.383Z,19.39
2018-03-27T16:35:01.147Z,19.16
2018-03-27T16:37:08.443Z,19.21
2018-03-27T16:39:12.206Z,19.37
2018-03-27T16:41:15.954Z,19.27
2018-03-27T16:43:20.475Z,19.22
2018-03-27T16:45:24.211Z,18.95
2018-03-27T16:47:28.086Z,19.14
2018-03-27T16:49:32.135Z,19.09
2018-03-27T16:51:35.960Z,19.05
2018-03-27T16:53:39.835Z,19.60
2018-03-27T16:55:43.943Z,19.50
2018-03-27T16:57:47.686Z,19.68
2018-03-27T16:59:51.439Z,19.11
2018-03-27T17:01:55.471Z,19.18
2018-03-27T17:03:59.662Z,19.69
2018-03-27T17:06:03.431Z,19.66
2018-03-27T17:08:07.741Z,19.27
2018-03-27T17:10:11.559Z,19.16
2018-03-27T17:12:15.447Z,19.43
2018-03-27T17:14:19.494Z,19.37
2018-03-27T17:16:23.224Z,19.35
2018-03-27T17:18:27.043Z,19.65
2018-03-27T17:20:31.077Z,19.33
2018-03-27T17:22:38.464Z,19.10
2018-03-27T17:24:42.210Z,19.36
2018-03-27T17:26:46.259Z,19.45
2018-03-27T17:28:49.983Z,19.15
2018-03-27T17:30:53.723Z,18.77
2018-03-27T17:32:57.751Z,18.87
2018-03-27T17:35:01.504Z,19.52
2018-03-27T17:37:05.310Z,19.40
2018-03-27T17:39:09.345Z,20.03
2018-03-27T17:41:13.181Z,19.51
2018-03-27T17:43:16.914Z,19.83
2018-03-27T17:45:20.963Z,20.03
2018-03-27T17:47:24.738Z,19.84
2018-03-27T17:49:28.459Z,19.30
2018-03-27T17:51:32.650Z,20.04
2018-03-27T17:53:36.383Z,20.38
2018-03-27T17:55:40.167Z,20.08
2018-03-27T17:57:44.235Z,19.45
2018-03-27T17:59:48.028Z,19.19
2018-03-27T18:01:52.000Z,19.57
2018-03-27T18:03:56.376Z,19.39
2018-03-27T18:06:00.116Z,18.64
2018-03-27T18:08:03.896Z,18.56
2018-03-27T18:10:08.019Z,18.87
2018-03-27T18:12:11.853Z,18.85
2018-03-27T18:14:15.587Z,18.65
2018-03-27T18:16:20.009Z,18.62
2018-03-27T18:18:23.888Z,19.22
2018-03-27T18:20:27.848Z,19.41
2018-03-27T18:22:32.022Z,19.23
2018-03-27T18:24:35.964Z,19.82
2018-03-27T18:26:39.677Z,19.33
2018-03-27T18:28:43.849Z,19.87
2018-03-27T18:30:47.614Z,20.06
2018-03-27T18:32:51.543Z,20.36
2018-03-27T18:34:55.824Z,19.87
2018-03-27T18:36:59.603Z,20.00
2018-03-27T18:39:03.600Z,19.74
2018-03-27T18:41:07.664Z,20.20
2018-03-27T18:43:11.394Z,19.52
2018-03-27T18:45:15.850Z,20.41
2018-03-27T18:47:20.003Z,20.08
2018-03-27T18:49:27.544Z,19.90
2018-03-27T18:51:31.270Z,20.52
2018-03-27T18:53:35.591Z,19.84
2018-03-27T18:55:39.464Z,19.86
2018-03-27T18:57:43.206Z,20.44
2018-03-27T18:59:47.261Z,20.12
2018-03-27T19:01:51.123Z,20.17
2018-03-27T19:03:54.892Z,19.57
2018-03-27T19:05:58.962Z,19.84
2018-03-27T19:08:03.043Z,20.21
2018-03-27T19:10:06.854Z,20.05
2018-03-27T19:12:11.434Z,19.45
2018-03-27T19:14:15.195Z,19.63
2018-03-27T19:16:18.970Z,19.07
2018-03-27T19:18:23.091Z,19.16
2018-03-27T19:20:27.033Z,19.60
2018-03-27T19:22:30.831Z,19.61
2018-03-27T19:24:35.369Z,20.13
2018-03-27T19:26:39.313Z,19.40
2018-03-27T19:28:43.370Z,20.24
2018-03-27T19:30:47.726Z,19.60
2018-03-27T19:32:52.681Z,19.16
2018-03-27T19:34:56.554Z,19.89
2018-03-27T19:37:00.725Z,19.47
2018-03-27T19:39:05.118Z,19.55
2018-03-27T19:41:09.019Z,19.84
2018-03-27T19:43:13.231Z,19.88
2018-03-27T19:45:17.346Z,19.69
2018-03-27T19:47:21.210Z,19.11
2018-03-27T19:49:25.523Z,18.79
2018-03-27T19:51:29.347Z,18.91
2018-03-27T19:53:33.241Z,18.53
2018-03-27T19:55:37.640Z,18.81
2018-03-27T19:57:41.635Z,18.77
2018-03-27T19:59:46.500Z,18.95
2018-03-27T20:01:50.895Z,19.01
2018-03-27T20:03:54.987Z,18.79
2018-03-27T20:06:02.223Z,18.14
2018-03-27T20:08:06.474Z,18.31
2018-03-27T20:10:10.606Z,18.46
2018-03-27T20:12:14.712Z,18.55
2018-03-27T20:14:18.822Z,18.06
2018-03-27T20:16:22.567Z,18.12
2018-03-27T20:18:26.494Z,18.21
2018-03-27T20:20:30.599Z,18.08
2018-03-27T20:22:34.460Z,18.56
2018-03-27T20:24:38.318Z,17.98
2018-03-27T20:26:42.723Z,18.27
2018-03-27T20:28:46.520Z,18.32
2018-03-27T20:30:50.306Z,18.82
2018-03-27T20:32:54.655Z,19.62
2018-03-27T20:34:58.539Z,19.57
2018-03-27T20:37:02.435Z,19.85
2018-03-27T20:39:07.003Z,19.28
2018-03-27T20:41:11.008Z,19.61
2018-03-27T20:43:15.038Z,19.67
2018-03-27T20:45:19.280Z,19.08
2018-03-27T20:47:23.122Z,19.19
2018-03-27T20:49:26.994Z,18.98
2018-03-27T20:51:31.207Z,20.04
2018-03-27T20:53:35.816Z,19.24
2018-03-27T20:55:39.571Z,19.73
2018-03-27T20:57:43.736Z,19.89
2018-03-27T20:59:47.470Z,20.00
2018-03-27T21:01:51.903Z,19.31
2018-03-27T21:03:56.058Z,18.39
2018-03-27T21:05:59.959Z,18.89
2018-03-27T21:08:03.910Z,18.33
2018-03-27T21:10:08.228Z,17.90
2018-03-27T21:12:12.002Z,17.96
2018-03-27T21:14:15.911Z,18.38
2018-03-27T21:16:20.179Z,18.20
2018-03-27T21:18:24.047Z,19.26
2018-03-27T21:20:27.787Z,17.91
2018-03-27T21:22:32.080Z,17.37
2018-03-27T21:24:35.843Z,17.58
2018-03-27T21:26:39.583Z,17.69
2018-03-27T21:28:44.204Z,17.47
2018-03-27T21:30:48.113Z,17.46
2018-03-27T21:32:52.224Z,17.51
2018-03-27T21:34:56.323Z,17.69
2018-03-27T21:37:00.152Z,18.00
2018-03-27T21:39:04.339Z,18.67
2018-03-27T21:41:08.340Z,18.99
2018-03-27T21:43:12.070Z,19.00
2018-03-27T21:45:16.025Z,18.19
2018-03-27T21:47:20.592Z,18.52
2018-03-27T21:49:24.715Z,18.59
2018-03-27T21:51:28.538Z,18.72
2018-03-27T21:53:33.203Z,19.32
2018-03-27T21:55:36.987Z,19.15
2018-03-27T21:57:41.934Z,19.33
2018-03-27T21:59:46.379Z,18.79
2018-03-27T22:01:50.126Z,18.50
2018-03-27T22:03:54.074Z,18.87
2018-03-27T22:05:58.286Z,18.48
2018-03-27T22:08:02.688Z,18.66
2018-03-27T22:10:07.073Z,18.75
2018-03-27T22:12:11.345Z,18.82
2018-03-27T22:14:15.218Z,18.79
2018-03-27T22:16:18.941Z,18.75
2018-03-27T22:18:24.460Z,18.54
2018-03-27T22:20:28.480Z,18.62
2018-03-27T22:22:32.610Z,18.82
2018-03-27T22:24:38.296Z,18.93
2018-03-27T22:26:42.183Z,18.86
2018-03-27T22:28:46.023Z,18.61
2018-03-27T22:30:50.612Z,18.54
2018-03-27T22:32:55.513Z,19.15
2018-03-27T22:35:01.135Z,18.64
2018-03-27T22:37:06.005Z,18.90
2018-03-27T22:39:14.221Z,18.59
2018-03-27T22:41:17.962Z,18.25
2018-03-27T22:43:22.366Z,18.26
2018-03-27T22:45:26.576Z,18.14
2018-03-27T22:47:30.328Z,18.21
2018-03-27T22:49:34.346Z,18.32
2018-03-27T22:51:38.128Z,18.53
2018-03-27T22:53:44.242Z,17.84
2018-03-27T22:55:48.505Z,18.16
2018-03-27T22:57:52.308Z,18.20
2018-03-27T22:59:56.307Z,17.61
2018-03-27T23:02:00.351Z,18.18
2018-03-27T23:04:04.121Z,17.96
2018-03-27T23:06:08.793Z,18.24
2018-03-27T23:08:13.244Z,17.69
2018-03-27T23:10:17.078Z,17.83
2018-03-27T23:12:25.011Z,17.86
2018-03-27T23:14:29.932Z,17.33
2018-03-27T23:16:33.693Z,17.78
2018-03-27T23:18:37.795Z,17.59
2018-03-27T23:20:41.952Z,17.23
2018-03-27T23:22:46.055Z,18.02
2018-03-27T23:24:50.099Z,17.64
2018-03-27T23:26:54.224Z,18.58
2018-03-27T23:28:58.380Z,18.59
2018-03-27T23:31:02.331Z,19.02
2018-03-27T23:33:06.476Z,19.32
2018-03-27T23:35:10.731Z,19.27
2018-03-27T23:37:14.704Z,19.08
2018-03-27T23:39:19.333Z,18.97
2018-03-27T23:41:23.478Z,18.66
2018-03-27T23:43:27.668Z,19.24
2018-03-27T23:45:31.755Z,18.71
2018-03-27T23:47:35.657Z,19.11
2018-03-27T23:49:39.719Z,19.27
2018-03-27T23:51:43.729Z,19.32
2018-03-27T23:53:47.695Z,19.16
2018-03-27T23:55:51.439Z,19.54
2018-03-27T23:57:55.628Z,18.87
2018-03-27T23:59:59.593Z,18.73
